KAWM/AWM METAR and TAF weather

Enter ICAO airport designator
Station Type Date Time Source
KAWM METAR 2021/10/20 05:53 UTC NOAA

KAWM 200553Z AUTO 16006KT 10SM CLR 12/09 A3014 RMK AO2 SLP204 T01170089 10156 20111 402280072 58002


Station Type Date Time Source
KAWM Decoded METAR 2021/10/20 05:53 UTC NOAA

WEST MEMPHIS MUNICIPAL AIRPORT, AR, United States (KAWM) 35-08N 090-14W
Oct 20, 2021 - 01:53 AM EDT / 2021.10.20 0553 UTC
Wind: from the SSE (160 degrees) at 7 MPH (6 KT):0
Visibility: 10 mile(s):0
Sky conditions: clear
Temperature: 53.1 F (11.7 C)
Dew Point: 48.0 F (8.9 C)
Relative Humidity: 82%
Pressure (altimeter): 30.14 in. Hg (1020 hPa)
Pressure tendency: 0.01 inches (0.2 hPa) lower than three hours ago
ob: KAWM 200553Z AUTO 16006KT 10SM CLR 12/09 A3014 RMK AO2 SLP204 T01170089 10156 20111 402280072 58002
cycle: 6

Station Type Date Time Source
KAWM TAF UTC NOAA

Error!

Example: see airport list